createdAt,value
2018-12-12T00:01:06.296Z,16.87
2018-12-12T00:03:34.566Z,16.53
2018-12-12T00:06:02.844Z,19.30
2018-12-12T00:08:31.088Z,19.73
2018-12-12T00:10:59.485Z,15.37
2018-12-12T00:13:27.911Z,17.93
2018-12-12T00:15:56.211Z,14.77
2018-12-12T00:18:24.687Z,16.10
2018-12-12T00:20:52.930Z,13.67
2018-12-12T00:23:21.234Z,23.47
2018-12-12T00:25:49.490Z,17.97
2018-12-12T00:28:17.768Z,16.00
2018-12-12T00:30:46.078Z,13.23
2018-12-12T00:33:14.309Z,20.23
2018-12-12T00:35:42.609Z,20.63
2018-12-12T00:38:11.114Z,15.87
2018-12-12T00:40:39.348Z,17.77
2018-12-12T00:43:07.664Z,20.53
2018-12-12T00:45:36.228Z,19.47
2018-12-12T00:48:04.571Z,16.40
2018-12-12T00:50:32.802Z,19.63
2018-12-12T00:53:01.130Z,18.23
2018-12-12T00:55:29.397Z,19.03
2018-12-12T00:57:58.128Z,20.27
2018-12-12T01:00:26.536Z,18.10
2018-12-12T01:02:54.820Z,20.73
2018-12-12T01:05:23.090Z,16.57
2018-12-12T01:07:51.363Z,19.03
2018-12-12T01:10:19.714Z,16.47
2018-12-12T01:12:48.093Z,19.73
2018-12-12T01:15:16.342Z,24.60
2018-12-12T01:17:44.622Z,20.57
2018-12-12T01:20:12.948Z,23.30
2018-12-12T01:22:41.248Z,20.27
2018-12-12T01:25:09.507Z,18.87
2018-12-12T01:27:37.775Z,24.13
2018-12-12T01:30:06.245Z,20.47
2018-12-12T01:32:34.669Z,19.70
2018-12-12T01:35:02.973Z,20.27
2018-12-12T01:37:31.225Z,17.73
2018-12-12T01:40:00.719Z,19.50
2018-12-12T01:42:29.236Z,18.97
2018-12-12T01:44:57.815Z,23.63
2018-12-12T01:47:26.165Z,15.47
2018-12-12T01:49:54.462Z,17.97
2018-12-12T01:52:22.796Z,22.20
2018-12-12T01:54:51.072Z,16.73
2018-12-12T01:57:19.370Z,21.20
2018-12-12T01:59:47.671Z,23.93
2018-12-12T02:02:15.932Z,20.10
2018-12-12T02:04:44.164Z,21.17
2018-12-12T02:07:12.438Z,19.80
2018-12-12T02:09:40.730Z,19.87
2018-12-12T02:12:09.053Z,18.10
2018-12-12T02:14:37.600Z,20.50
2018-12-12T02:17:06.026Z,18.60
2018-12-12T02:19:34.366Z,20.80
2018-12-12T02:22:02.702Z,20.07
2018-12-12T02:24:30.988Z,24.13
2018-12-12T02:26:59.265Z,19.57
2018-12-12T02:29:27.532Z,19.40
2018-12-12T02:31:55.905Z,23.37
2018-12-12T02:34:24.166Z,20.23
2018-12-12T02:36:52.479Z,20.07
2018-12-12T02:39:20.732Z,21.13
2018-12-12T02:41:49.049Z,19.13
2018-12-12T02:44:17.406Z,18.87
2018-12-12T02:46:45.762Z,17.43
2018-12-12T02:49:14.006Z,23.10
2018-12-12T02:51:42.236Z,20.73
2018-12-12T02:54:10.541Z,23.67
2018-12-12T02:56:38.946Z,20.10
2018-12-12T02:59:07.221Z,19.17
2018-12-12T03:01:35.601Z,18.77
2018-12-12T03:04:03.833Z,17.43
2018-12-12T03:06:32.182Z,19.23
2018-12-12T03:09:00.431Z,19.90
2018-12-12T03:11:28.700Z,25.77
2018-12-12T03:13:57.054Z,19.03
2018-12-12T03:16:25.302Z,24.53
2018-12-12T03:18:54.109Z,30.00
2018-12-12T03:21:22.644Z,22.83
2018-12-12T03:23:50.907Z,20.87
2018-12-12T03:26:19.211Z,17.60
2018-12-12T03:28:47.440Z,22.80
2018-12-12T03:31:15.737Z,22.93
2018-12-12T03:33:44.029Z,20.10
2018-12-12T03:36:12.307Z,18.10
2018-12-12T03:38:40.598Z,19.83
2018-12-12T03:41:08.845Z,17.47
2018-12-12T03:43:37.099Z,20.43
2018-12-12T03:46:05.369Z,27.03
2018-12-12T03:48:33.640Z,18.87
2018-12-12T03:51:01.981Z,26.60
2018-12-12T03:53:30.632Z,18.73
2018-12-12T03:55:59.016Z,22.07
2018-12-12T03:58:27.290Z,18.73
2018-12-12T04:00:55.582Z,20.80
2018-12-12T04:03:23.944Z,18.43
2018-12-12T04:05:52.722Z,23.97
2018-12-12T04:08:21.013Z,19.83
2018-12-12T04:10:49.230Z,18.77
2018-12-12T04:13:17.515Z,22.50
2018-12-12T04:15:45.867Z,16.23
2018-12-12T04:18:14.188Z,21.63
2018-12-12T04:20:42.761Z,19.83
2018-12-12T04:23:11.128Z,20.27
2018-12-12T04:25:39.419Z,17.37
2018-12-12T04:28:07.702Z,18.67
2018-12-12T04:30:35.972Z,17.70
2018-12-12T04:33:04.250Z,18.37
2018-12-12T04:35:32.981Z,21.07
2018-12-12T04:38:01.248Z,20.27
2018-12-12T04:40:29.555Z,20.87
2018-12-12T04:42:57.805Z,23.30
2018-12-12T04:45:26.072Z,21.80
2018-12-12T04:47:54.373Z,20.17
2018-12-12T04:50:22.681Z,23.87
2018-12-12T04:52:51.043Z,20.17
2018-12-12T04:55:19.293Z,23.03
2018-12-12T04:57:47.630Z,22.77
2018-12-12T05:00:16.052Z,21.77
2018-12-12T05:02:44.908Z,20.80
2018-12-12T05:05:13.261Z,19.03
2018-12-12T05:07:41.633Z,18.50
2018-12-12T05:10:09.922Z,21.93
2018-12-12T05:12:38.262Z,22.43
2018-12-12T05:15:06.653Z,21.17
2018-12-12T05:17:35.035Z,24.27
2018-12-12T05:20:03.559Z,22.63
2018-12-12T05:22:31.815Z,19.50
2018-12-12T05:25:00.117Z,20.50
2018-12-12T05:30:11.885Z,24.30
2018-12-12T05:32:40.318Z,24.73
2018-12-12T05:35:08.675Z,19.67
2018-12-12T05:37:37.550Z,20.93
2018-12-12T05:40:06.127Z,18.87
2018-12-12T05:42:34.603Z,20.47
2018-12-12T05:45:02.903Z,19.13
2018-12-12T05:47:31.567Z,21.00
2018-12-12T05:49:59.947Z,26.57
2018-12-12T05:52:28.236Z,28.00
2018-12-12T05:54:56.510Z,23.77
2018-12-12T05:57:24.771Z,18.87
2018-12-12T05:59:53.118Z,23.97
2018-12-12T06:02:21.369Z,19.80
2018-12-12T06:04:49.694Z,22.57
2018-12-12T06:07:17.982Z,18.77
2018-12-12T06:09:46.308Z,17.67
2018-12-12T06:12:14.605Z,19.60
2018-12-12T06:14:42.971Z,24.53
2018-12-12T06:17:11.326Z,18.27
2018-12-12T06:19:40.716Z,18.37
2018-12-12T06:22:09.714Z,18.53
2018-12-12T06:24:38.012Z,18.00
2018-12-12T06:27:07.604Z,21.80
2018-12-12T06:29:36.104Z,22.37
2018-12-12T06:32:04.534Z,22.17
2018-12-12T06:34:32.829Z,21.90
2018-12-12T06:37:01.140Z,27.23
2018-12-12T06:39:29.409Z,22.50
2018-12-12T06:41:57.744Z,24.57
2018-12-12T06:44:26.088Z,27.13
2018-12-12T06:46:55.246Z,23.23
2018-12-12T06:49:23.952Z,29.27
2018-12-12T06:51:52.357Z,23.27
2018-12-12T06:54:20.642Z,20.00
2018-12-12T06:56:49.030Z,16.80
2018-12-12T06:59:17.266Z,20.00
2018-12-12T07:01:45.690Z,18.77
2018-12-12T07:04:13.965Z,19.53
2018-12-12T07:06:42.245Z,18.80
2018-12-12T07:09:10.516Z,21.83
2018-12-12T07:11:38.731Z,20.97
2018-12-12T07:14:07.057Z,18.17
2018-12-12T07:16:35.362Z,19.03
2018-12-12T07:19:03.710Z,18.27
2018-12-12T07:21:31.991Z,16.10
2018-12-12T07:24:00.366Z,14.50
2018-12-12T07:26:28.632Z,19.83
2018-12-12T07:28:56.984Z,18.60
2018-12-12T07:31:25.294Z,19.67
2018-12-12T07:33:54.033Z,19.60
2018-12-12T07:36:22.306Z,17.90
2018-12-12T07:38:50.571Z,17.07
2018-12-12T07:41:18.861Z,18.50
2018-12-12T07:43:47.205Z,18.47
2018-12-12T07:46:15.465Z,18.00
2018-12-12T07:48:43.684Z,17.67
2018-12-12T07:51:18.547Z,21.23
2018-12-12T07:53:46.787Z,28.10
2018-12-12T07:56:15.055Z,16.87
2018-12-12T07:58:43.272Z,17.73
2018-12-12T08:01:11.490Z,22.30
2018-12-12T08:03:39.810Z,22.60
2018-12-12T08:06:08.123Z,18.43
2018-12-12T08:08:36.657Z,17.13
2018-12-12T08:11:04.985Z,18.27
2018-12-12T08:13:33.280Z,24.40
2018-12-12T08:16:02.101Z,20.63
2018-12-12T08:18:30.340Z,20.77
2018-12-12T08:20:58.653Z,18.83
2018-12-12T08:23:27.313Z,21.57
2018-12-12T08:25:55.604Z,22.60
2018-12-12T08:28:23.871Z,21.63
2018-12-12T08:30:52.203Z,20.63
2018-12-12T08:33:20.416Z,19.73
2018-12-12T08:35:48.707Z,26.27
2018-12-12T08:38:16.984Z,29.10
2018-12-12T08:40:45.313Z,21.63
2018-12-12T08:43:13.567Z,25.23
2018-12-12T08:45:41.842Z,26.17
2018-12-12T08:48:10.294Z,25.67
2018-12-12T08:50:38.632Z,26.70
2018-12-12T08:53:06.876Z,26.53
2018-12-12T08:55:36.051Z,25.53
2018-12-12T08:58:04.441Z,27.23
2018-12-12T09:00:32.798Z,21.77
2018-12-12T09:03:01.102Z,20.80
2018-12-12T09:05:29.405Z,21.57
2018-12-12T09:07:57.635Z,20.20
2018-12-12T09:10:26.004Z,20.73
2018-12-12T09:12:54.313Z,21.30
2018-12-12T09:15:22.606Z,20.20
2018-12-12T09:17:50.990Z,20.67
2018-12-12T09:20:19.440Z,15.33
2018-12-12T09:22:47.770Z,17.87
2018-12-12T09:25:16.083Z,15.83
2018-12-12T09:27:44.300Z,16.70
2018-12-12T09:30:12.716Z,17.90
2018-12-12T09:32:41.041Z,23.50
2018-12-12T09:35:09.492Z,19.00
2018-12-12T09:37:37.843Z,18.23
2018-12-12T09:40:06.288Z,23.67
2018-12-12T09:42:34.619Z,15.27
2018-12-12T09:45:02.905Z,14.73
2018-12-12T09:47:31.262Z,14.87
2018-12-12T09:49:59.521Z,17.07
2018-12-12T09:52:27.845Z,16.47
2018-12-12T09:54:56.120Z,19.43
2018-12-12T09:57:24.579Z,16.13
2018-12-12T09:59:53.194Z,15.67
2018-12-12T10:02:21.829Z,15.07
2018-12-12T10:04:50.427Z,15.27
2018-12-12T10:07:19.094Z,14.87
2018-12-12T10:09:47.851Z,16.77
2018-12-12T10:12:16.575Z,12.03
2018-12-12T10:14:45.504Z,15.20
2018-12-12T10:17:14.584Z,15.57
2018-12-12T10:19:43.559Z,13.30
2018-12-12T10:22:11.904Z,15.87
2018-12-12T10:24:40.215Z,12.57
2018-12-12T10:27:08.432Z,18.70
2018-12-12T10:29:36.728Z,15.67
2018-12-12T10:32:05.487Z,13.60
2018-12-12T10:34:33.888Z,13.87
2018-12-12T10:37:02.185Z,14.13
2018-12-12T10:39:30.444Z,16.20
2018-12-12T10:41:58.758Z,16.80
2018-12-12T10:44:27.096Z,17.67
2018-12-12T10:46:55.399Z,13.20
2018-12-12T10:49:23.770Z,15.20
2018-12-12T10:51:52.628Z,11.50
2018-12-12T10:54:21.642Z,12.93
2018-12-12T10:56:50.568Z,13.10
2018-12-12T10:59:18.816Z,11.87
2018-12-12T11:01:47.237Z,11.27
2018-12-12T11:04:20.524Z,12.60
2018-12-12T11:06:49.315Z,10.10
2018-12-12T11:09:18.300Z,10.67
2018-12-12T11:11:47.450Z,11.37
2018-12-12T11:14:16.574Z,13.37
2018-12-12T11:16:46.036Z,13.63
2018-12-12T11:19:15.302Z,15.77
2018-12-12T11:21:44.335Z,12.03
2018-12-12T11:24:13.075Z,8.13
2018-12-12T11:26:41.633Z,11.97
2018-12-12T11:29:10.382Z,8.83
2018-12-12T11:31:38.933Z,8.07
2018-12-12T11:34:07.618Z,9.60
2018-12-12T11:36:36.126Z,7.17
2018-12-12T11:39:06.095Z,6.67
2018-12-12T11:41:34.766Z,7.40
2018-12-12T11:44:03.448Z,9.63
2018-12-12T11:46:32.053Z,3.97
2018-12-12T11:49:00.596Z,7.23
2018-12-12T11:51:29.175Z,4.33
2018-12-12T11:53:57.658Z,3.70
2018-12-12T11:56:26.274Z,4.70
2018-12-12T11:58:55.134Z,4.50
2018-12-12T12:01:23.716Z,7.13
2018-12-12T12:03:56.701Z,4.50
2018-12-12T12:06:23.309Z,4.60
2018-12-12T12:08:52.051Z,2.73
2018-12-12T12:11:20.888Z,5.90
2018-12-12T12:13:49.532Z,6.30
2018-12-12T12:16:18.213Z,3.03
2018-12-12T12:18:46.943Z,2.63
2018-12-12T12:21:15.681Z,3.40
2018-12-12T12:23:44.393Z,4.60
2018-12-12T12:26:13.581Z,7.20
2018-12-12T12:28:42.101Z,4.27
2018-12-12T12:31:10.721Z,5.30
2018-12-12T12:33:40.349Z,5.17
2018-12-12T12:36:09.339Z,4.47
2018-12-12T12:38:37.891Z,6.77
2018-12-12T12:41:06.489Z,4.70
2018-12-12T12:43:34.982Z,5.33
2018-12-12T12:46:03.966Z,4.13
2018-12-12T12:48:42.352Z,3.37
2018-12-12T12:51:11.969Z,4.43
2018-12-12T12:53:40.516Z,4.13
2018-12-12T12:56:09.113Z,5.07
2018-12-12T12:58:37.616Z,4.17
2018-12-12T13:01:06.219Z,4.80
2018-12-12T13:03:34.866Z,3.63
2018-12-12T13:06:03.507Z,4.80
2018-12-12T13:08:31.962Z,3.70
2018-12-12T13:11:00.480Z,4.27
2018-12-12T13:13:29.178Z,4.97
2018-12-12T13:15:58.343Z,6.40
2018-12-12T13:18:27.305Z,3.97
2018-12-12T13:20:55.512Z,5.03
2018-12-12T13:23:23.842Z,5.37
2018-12-12T13:25:52.087Z,5.33
2018-12-12T13:28:20.330Z,5.60
2018-12-12T13:30:48.678Z,5.33
2018-12-12T13:33:16.907Z,4.40
2018-12-12T13:35:45.155Z,5.87
2018-12-12T13:38:13.633Z,5.57
2018-12-12T13:40:41.914Z,4.67
2018-12-12T13:43:10.198Z,4.97
2018-12-12T13:45:38.411Z,4.97
2018-12-12T13:48:06.646Z,4.63
2018-12-12T13:50:34.959Z,4.57
2018-12-12T13:53:03.195Z,4.27
2018-12-12T13:55:31.547Z,8.03
2018-12-12T13:57:59.835Z,3.90
2018-12-12T14:00:28.151Z,4.23
2018-12-12T14:02:56.424Z,4.80
2018-12-12T14:05:24.727Z,3.90
2018-12-12T14:07:52.946Z,4.43
2018-12-12T14:10:21.199Z,5.73
2018-12-12T14:12:49.431Z,3.97
2018-12-12T14:15:17.646Z,4.20
2018-12-12T14:17:45.895Z,2.50
2018-12-12T14:20:14.116Z,1.97
2018-12-12T14:22:42.430Z,7.10
2018-12-12T14:25:10.838Z,3.80
2018-12-12T14:27:39.154Z,3.20
2018-12-12T14:30:08.502Z,3.63
2018-12-12T14:32:36.806Z,2.80
2018-12-12T14:35:05.218Z,7.10
2018-12-12T14:37:33.621Z,3.20
2018-12-12T14:40:01.890Z,4.53
2018-12-12T14:42:30.259Z,4.37
2018-12-12T14:44:58.496Z,7.73
2018-12-12T14:47:26.739Z,6.27
2018-12-12T14:49:55.053Z,4.43
2018-12-12T14:52:23.307Z,5.57
2018-12-12T14:54:51.530Z,4.17
2018-12-12T14:57:19.784Z,9.77
2018-12-12T14:59:48.064Z,5.83
2018-12-12T15:02:16.305Z,6.47
2018-12-12T15:04:44.582Z,5.10
2018-12-12T15:07:12.788Z,5.27
2018-12-12T15:09:41.087Z,6.23
2018-12-12T15:12:09.318Z,7.07
2018-12-12T15:14:37.563Z,5.77
2018-12-12T15:17:05.881Z,6.20
2018-12-12T15:19:34.235Z,5.00
2018-12-12T15:22:02.607Z,4.60
2018-12-12T15:24:30.867Z,4.60
2018-12-12T15:26:59.185Z,5.10
2018-12-12T15:29:27.469Z,6.50
2018-12-12T15:31:55.755Z,3.93
2018-12-12T15:34:24.015Z,6.83
2018-12-12T15:36:52.304Z,4.33
2018-12-12T15:39:20.566Z,5.43
2018-12-12T15:41:48.873Z,6.90
2018-12-12T15:44:17.157Z,5.97
2018-12-12T15:46:45.439Z,6.80
2018-12-12T15:49:13.720Z,5.80
2018-12-12T15:51:41.961Z,6.23
2018-12-12T15:54:10.242Z,6.90
2018-12-12T15:56:38.559Z,9.30
2018-12-12T15:59:06.854Z,7.60
2018-12-12T16:01:35.100Z,8.93
2018-12-12T16:04:03.359Z,8.00
2018-12-12T16:06:31.601Z,7.50
2018-12-12T16:08:59.903Z,8.20
2018-12-12T16:11:28.144Z,6.87
2018-12-12T16:13:56.434Z,7.03
2018-12-12T16:16:24.697Z,7.10
2018-12-12T16:18:52.980Z,6.73
2018-12-12T16:21:21.207Z,6.43
2018-12-12T16:23:49.451Z,7.37
2018-12-12T16:26:18.062Z,4.93
2018-12-12T16:28:46.557Z,4.37
2018-12-12T16:31:14.829Z,6.10
2018-12-12T16:33:43.053Z,8.67
2018-12-12T16:36:11.319Z,6.07
2018-12-12T16:38:39.583Z,7.30
2018-12-12T16:41:07.971Z,6.23
2018-12-12T16:43:36.246Z,11.67
2018-12-12T16:46:04.558Z,8.37
2018-12-12T16:48:32.777Z,7.27
2018-12-12T16:51:01.034Z,9.33
2018-12-12T16:53:29.292Z,10.43
2018-12-12T16:55:57.547Z,7.03
2018-12-12T16:58:25.789Z,8.93
2018-12-12T17:00:54.102Z,7.90
2018-12-12T17:03:22.349Z,9.43
2018-12-12T17:05:50.689Z,7.63
2018-12-12T17:08:19.041Z,10.27
2018-12-12T17:10:47.256Z,8.07
2018-12-12T17:13:15.589Z,7.83
2018-12-12T17:15:43.819Z,6.83
2018-12-12T17:18:12.096Z,8.57
2018-12-12T17:20:40.341Z,10.30
2018-12-12T17:23:08.674Z,7.73
2018-12-12T17:25:36.918Z,9.77
2018-12-12T17:28:05.212Z,6.37
2018-12-12T17:30:33.559Z,10.60
2018-12-12T17:33:01.798Z,12.67
2018-12-12T17:35:30.022Z,10.47
2018-12-12T17:37:58.285Z,7.53
2018-12-12T17:40:26.671Z,8.10
2018-12-12T17:42:54.893Z,12.87
2018-12-12T17:45:23.122Z,41.67
2018-12-12T17:47:51.414Z,12.37
2018-12-12T17:50:19.744Z,8.00
2018-12-12T17:52:47.997Z,8.33
2018-12-12T17:55:16.472Z,7.83
2018-12-12T17:57:44.738Z,10.00
2018-12-12T18:00:13.126Z,8.93
2018-12-12T18:02:41.474Z,10.00
2018-12-12T18:05:15.109Z,9.93
2018-12-12T18:07:40.104Z,10.67
2018-12-12T18:10:08.461Z,9.27
2018-12-12T18:12:36.686Z,8.23
2018-12-12T18:15:05.203Z,8.37
2018-12-12T18:17:33.474Z,8.40
2018-12-12T18:20:01.793Z,9.53
2018-12-12T18:22:30.102Z,10.63
2018-12-12T18:24:58.462Z,9.40
2018-12-12T18:27:26.722Z,6.03
2018-12-12T18:29:54.972Z,12.23
2018-12-12T18:32:23.355Z,6.50
2018-12-12T18:34:51.614Z,8.37
2018-12-12T18:37:19.984Z,10.67
2018-12-12T18:39:48.221Z,9.77
2018-12-12T18:42:16.534Z,9.20
2018-12-12T18:44:44.768Z,7.87
2018-12-12T18:47:13.112Z,8.67
2018-12-12T18:49:41.459Z,9.70
2018-12-12T18:52:09.714Z,6.73
2018-12-12T18:54:37.948Z,8.83
2018-12-12T18:57:06.348Z,5.83
2018-12-12T18:59:34.679Z,6.57
2018-12-12T19:02:02.946Z,9.80
2018-12-12T19:04:31.305Z,7.37
2018-12-12T19:06:59.573Z,8.37
2018-12-12T19:09:27.922Z,10.93
2018-12-12T19:11:56.243Z,8.37
2018-12-12T19:14:24.531Z,9.30
2018-12-12T19:16:52.805Z,9.13
2018-12-12T19:19:21.074Z,9.90
2018-12-12T19:21:49.426Z,8.67
2018-12-12T19:24:17.738Z,8.20
2018-12-12T19:26:46.002Z,11.43
2018-12-12T19:29:14.371Z,10.20
2018-12-12T19:31:42.739Z,16.93
2018-12-12T19:34:11.047Z,7.13
2018-12-12T19:36:39.314Z,10.30
2018-12-12T19:39:08.561Z,7.47
2018-12-12T19:41:36.853Z,9.53
2018-12-12T19:44:05.146Z,12.37
2018-12-12T19:46:33.431Z,7.80
2018-12-12T19:49:01.703Z,6.20
2018-12-12T19:51:29.989Z,8.23
2018-12-12T19:53:58.389Z,5.70
2018-12-12T19:56:26.857Z,8.23
2018-12-12T19:58:55.110Z,11.17
2018-12-12T20:01:23.352Z,6.83
2018-12-12T20:03:51.742Z,7.27
2018-12-12T20:06:20.054Z,6.67
2018-12-12T20:08:48.750Z,6.40
2018-12-12T20:11:17.067Z,6.07
2018-12-12T20:13:45.830Z,6.43
2018-12-12T20:16:14.840Z,6.20
2018-12-12T20:18:43.595Z,5.77
2018-12-12T20:21:12.016Z,5.53
2018-12-12T20:23:40.427Z,6.67
2018-12-12T20:26:08.708Z,6.80
2018-12-12T20:28:36.974Z,5.87
2018-12-12T20:31:05.269Z,19.07
2018-12-12T20:33:33.564Z,5.83
2018-12-12T20:36:01.839Z,5.67
2018-12-12T20:38:30.059Z,5.27
2018-12-12T20:40:58.375Z,7.23
2018-12-12T20:43:26.636Z,4.80
2018-12-12T20:45:54.900Z,5.13
2018-12-12T20:48:23.241Z,5.23
2018-12-12T20:50:51.491Z,15.60
2018-12-12T20:53:19.760Z,7.17
2018-12-12T20:55:48.005Z,8.73
2018-12-12T20:58:16.254Z,7.43
2018-12-12T21:00:44.754Z,7.27
2018-12-12T21:03:13.012Z,8.30
2018-12-12T21:05:41.248Z,7.50
2018-12-12T21:08:09.505Z,13.07
2018-12-12T21:10:37.813Z,33.43
2018-12-12T21:13:06.289Z,8.97
2018-12-12T21:15:34.533Z,8.60
2018-12-12T21:18:02.793Z,8.20
2018-12-12T21:20:31.048Z,6.77
2018-12-12T21:22:59.281Z,8.93
2018-12-12T21:25:30.467Z,6.97
2018-12-12T21:27:58.732Z,7.47
2018-12-12T21:30:27.036Z,7.30
2018-12-12T21:35:33.775Z,7.73
2018-12-12T21:38:02.227Z,7.23
2018-12-12T21:40:30.572Z,11.07
2018-12-12T21:42:58.825Z,9.17
2018-12-12T21:45:27.135Z,8.10
2018-12-12T21:47:55.375Z,6.83
2018-12-12T21:50:23.619Z,7.90
2018-12-12T21:52:51.910Z,8.20
2018-12-12T21:55:20.174Z,6.37
2018-12-12T21:57:48.454Z,8.60
2018-12-12T22:00:16.759Z,7.27
2018-12-12T22:02:45.157Z,8.30
2018-12-12T22:05:13.415Z,8.10
2018-12-12T22:07:41.653Z,6.63
2018-12-12T22:10:09.981Z,9.87
2018-12-12T22:12:38.217Z,6.03
2018-12-12T22:15:06.797Z,8.13
2018-12-12T22:17:35.071Z,6.40
2018-12-12T22:20:03.437Z,6.00
2018-12-12T22:22:31.671Z,6.90
2018-12-12T22:24:59.937Z,6.77
2018-12-12T22:27:28.267Z,5.50
2018-12-12T22:29:56.623Z,4.87
2018-12-12T22:32:24.892Z,9.13
2018-12-12T22:34:53.168Z,7.73
2018-12-12T22:37:21.427Z,7.53
2018-12-12T22:39:49.704Z,7.27
2018-12-12T22:42:17.916Z,9.30
2018-12-12T22:44:46.196Z,8.93
2018-12-12T22:47:14.483Z,7.40
2018-12-12T22:49:42.723Z,6.93
2018-12-12T22:52:10.976Z,7.03
2018-12-12T22:54:39.334Z,6.57
2018-12-12T22:57:07.617Z,6.43
2018-12-12T22:59:35.848Z,6.37
2018-12-12T23:02:04.260Z,7.03
2018-12-12T23:04:32.845Z,4.50
2018-12-12T23:07:01.086Z,6.53
2018-12-12T23:09:29.371Z,7.13
2018-12-12T23:11:57.647Z,6.43
2018-12-12T23:14:25.915Z,7.10
2018-12-12T23:17:00.795Z,7.07
2018-12-12T23:19:29.045Z,6.57
2018-12-12T23:21:57.331Z,6.20
2018-12-12T23:24:25.590Z,7.73
2018-12-12T23:26:53.941Z,10.93
2018-12-12T23:29:22.196Z,7.10
2018-12-12T23:31:50.458Z,6.30
2018-12-12T23:34:18.725Z,7.83
2018-12-12T23:36:46.949Z,6.90
2018-12-12T23:39:15.299Z,6.70
2018-12-12T23:41:43.518Z,7.63
2018-12-12T23:44:11.837Z,7.13
2018-12-12T23:46:40.085Z,9.60
2018-12-12T23:49:08.420Z,9.00
2018-12-12T23:51:36.663Z,7.60
2018-12-12T23:54:04.934Z,7.60
2018-12-12T23:56:33.158Z,7.77
2018-12-12T23:59:01.398Z,8.93
